sensor_id;sensor_type;location;lat;lon;timestamp;P1;durP1;ratioP1;P2;durP2;ratioP2
12687;SDS011;6408;59.388;17.798;2022-11-24T00:00:32;3.23;;;2.13;;
12687;SDS011;6408;59.388;17.798;2022-11-24T00:02:59;2.50;;;2.10;;
12687;SDS011;6408;59.388;17.798;2022-11-24T00:05:28;2.73;;;2.10;;
12687;SDS011;6408;59.388;17.798;2022-11-24T00:07:55;2.50;;;1.80;;
12687;SDS011;6408;59.388;17.798;2022-11-24T00:10:24;2.00;;;1.80;;
12687;SDS011;6408;59.388;17.798;2022-11-24T00:12:51;2.77;;;2.27;;
12687;SDS011;6408;59.388;17.798;2022-11-24T00:15:18;2.23;;;2.00;;
12687;SDS011;6408;59.388;17.798;2022-11-24T00:17:45;2.13;;;1.90;;
12687;SDS011;6408;59.388;17.798;2022-11-24T00:20:12;2.73;;;2.30;;
12687;SDS011;6408;59.388;17.798;2022-11-24T00:22:40;2.23;;;2.03;;
12687;SDS011;6408;59.388;17.798;2022-11-24T00:25:07;2.43;;;2.23;;
12687;SDS011;6408;59.388;17.798;2022-11-24T00:27:36;2.43;;;1.93;;
12687;SDS011;6408;59.388;17.798;2022-11-24T00:30:03;2.47;;;2.13;;
12687;SDS011;6408;59.388;17.798;2022-11-24T00:32:30;2.83;;;2.30;;
12687;SDS011;6408;59.388;17.798;2022-11-24T00:34:58;2.53;;;2.10;;
12687;SDS011;6408;59.388;17.798;2022-11-24T00:37:25;2.47;;;2.20;;
12687;SDS011;6408;59.388;17.798;2022-11-24T00:39:52;3.00;;;2.50;;
12687;SDS011;6408;59.388;17.798;2022-11-24T00:42:19;2.37;;;2.00;;
12687;SDS011;6408;59.388;17.798;2022-11-24T00:44:48;2.90;;;2.50;;
12687;SDS011;6408;59.388;17.798;2022-11-24T00:47:15;2.93;;;2.23;;
12687;SDS011;6408;59.388;17.798;2022-11-24T00:49:42;2.90;;;2.33;;
12687;SDS011;6408;59.388;17.798;2022-11-24T00:52:09;3.23;;;2.07;;
12687;SDS011;6408;59.388;17.798;2022-11-24T00:54:37;2.97;;;2.30;;
12687;SDS011;6408;59.388;17.798;2022-11-24T00:57:04;3.47;;;2.33;;
12687;SDS011;6408;59.388;17.798;2022-11-24T00:59:31;2.50;;;2.17;;
12687;SDS011;6408;59.388;17.798;2022-11-24T01:01:59;3.53;;;2.50;;
12687;SDS011;6408;59.388;17.798;2022-11-24T01:04:27;4.23;;;2.63;;
12687;SDS011;6408;59.388;17.798;2022-11-24T01:06:54;3.30;;;2.63;;
12687;SDS011;6408;59.388;17.798;2022-11-24T01:09:21;3.83;;;2.43;;
12687;SDS011;6408;59.388;17.798;2022-11-24T01:11:48;3.43;;;2.47;;
12687;SDS011;6408;59.388;17.798;2022-11-24T01:14:28;3.90;;;2.63;;
12687;SDS011;6408;59.388;17.798;2022-11-24T01:16:56;3.13;;;2.30;;
12687;SDS011;6408;59.388;17.798;2022-11-24T01:19:25;3.33;;;2.27;;
12687;SDS011;6408;59.388;17.798;2022-11-24T01:21:52;3.70;;;2.50;;
12687;SDS011;6408;59.388;17.798;2022-11-24T01:24:20;3.60;;;2.43;;
12687;SDS011;6408;59.388;17.798;2022-11-24T01:26:47;3.77;;;2.60;;
12687;SDS011;6408;59.388;17.798;2022-11-24T01:29:14;4.63;;;2.63;;
12687;SDS011;6408;59.388;17.798;2022-11-24T01:31:41;3.80;;;2.90;;
12687;SDS011;6408;59.388;17.798;2022-11-24T01:34:08;3.20;;;2.90;;
12687;SDS011;6408;59.388;17.798;2022-11-24T01:36:38;4.47;;;2.80;;
12687;SDS011;6408;59.388;17.798;2022-11-24T01:39:05;3.30;;;2.50;;
12687;SDS011;6408;59.388;17.798;2022-11-24T01:41:32;4.50;;;2.70;;
12687;SDS011;6408;59.388;17.798;2022-11-24T01:44:17;3.40;;;2.50;;
12687;SDS011;6408;59.388;17.798;2022-11-24T01:46:46;3.23;;;2.10;;
12687;SDS011;6408;59.388;17.798;2022-11-24T01:49:16;2.57;;;2.37;;
12687;SDS011;6408;59.388;17.798;2022-11-24T01:51:47;3.33;;;2.40;;
12687;SDS011;6408;59.388;17.798;2022-11-24T01:54:19;2.63;;;2.27;;
12687;SDS011;6408;59.388;17.798;2022-11-24T01:56:53;3.23;;;2.33;;
12687;SDS011;6408;59.388;17.798;2022-11-24T01:59:27;3.07;;;2.30;;
12687;SDS011;6408;59.388;17.798;2022-11-24T02:01:54;4.70;;;2.53;;
12687;SDS011;6408;59.388;17.798;2022-11-24T02:04:23;3.97;;;3.00;;
12687;SDS011;6408;59.388;17.798;2022-11-24T02:06:53;2.40;;;2.20;;
12687;SDS011;6408;59.388;17.798;2022-11-24T02:09:25;3.67;;;2.87;;
12687;SDS011;6408;59.388;17.798;2022-11-24T02:11:57;3.47;;;3.03;;
12687;SDS011;6408;59.388;17.798;2022-11-24T02:14:26;3.87;;;2.90;;
12687;SDS011;6408;59.388;17.798;2022-11-24T02:16:53;3.73;;;2.40;;
12687;SDS011;6408;59.388;17.798;2022-11-24T02:19:24;3.40;;;2.87;;
12687;SDS011;6408;59.388;17.798;2022-11-24T02:21:59;3.67;;;3.03;;
12687;SDS011;6408;59.388;17.798;2022-11-24T02:24:28;3.77;;;2.73;;
12687;SDS011;6408;59.388;17.798;2022-11-24T02:27:02;3.17;;;2.70;;
12687;SDS011;6408;59.388;17.798;2022-11-24T02:29:30;4.20;;;3.00;;
12687;SDS011;6408;59.388;17.798;2022-11-24T02:31:58;4.30;;;3.07;;
12687;SDS011;6408;59.388;17.798;2022-11-24T02:34:28;4.40;;;3.30;;
12687;SDS011;6408;59.388;17.798;2022-11-24T02:36:55;3.57;;;3.27;;
12687;SDS011;6408;59.388;17.798;2022-11-24T02:39:22;4.73;;;3.27;;
12687;SDS011;6408;59.388;17.798;2022-11-24T02:41:51;6.63;;;3.70;;
12687;SDS011;6408;59.388;17.798;2022-11-24T02:44:24;4.50;;;3.70;;
12687;SDS011;6408;59.388;17.798;2022-11-24T02:47:00;4.47;;;3.40;;
12687;SDS011;6408;59.388;17.798;2022-11-24T02:49:28;5.87;;;3.43;;
12687;SDS011;6408;59.388;17.798;2022-11-24T02:51:55;4.27;;;3.47;;
12687;SDS011;6408;59.388;17.798;2022-11-24T02:54:22;5.90;;;3.47;;
12687;SDS011;6408;59.388;17.798;2022-11-24T02:56:49;4.10;;;3.70;;
12687;SDS011;6408;59.388;17.798;2022-11-24T02:59:16;4.30;;;3.27;;
12687;SDS011;6408;59.388;17.798;2022-11-24T03:01:45;5.00;;;3.40;;
12687;SDS011;6408;59.388;17.798;2022-11-24T03:04:13;5.60;;;3.70;;
12687;SDS011;6408;59.388;17.798;2022-11-24T03:06:40;4.63;;;3.80;;
12687;SDS011;6408;59.388;17.798;2022-11-24T03:09:08;4.53;;;3.27;;
12687;SDS011;6408;59.388;17.798;2022-11-24T03:11:35;4.70;;;3.87;;
12687;SDS011;6408;59.388;17.798;2022-11-24T03:14:03;5.37;;;3.67;;
12687;SDS011;6408;59.388;17.798;2022-11-24T03:16:30;5.40;;;3.60;;
12687;SDS011;6408;59.388;17.798;2022-11-24T03:18:59;4.80;;;3.63;;
12687;SDS011;6408;59.388;17.798;2022-11-24T03:21:26;5.63;;;3.43;;
12687;SDS011;6408;59.388;17.798;2022-11-24T03:23:54;4.93;;;3.40;;
12687;SDS011;6408;59.388;17.798;2022-11-24T03:26:22;6.13;;;3.50;;
12687;SDS011;6408;59.388;17.798;2022-11-24T03:28:51;5.50;;;3.73;;
12687;SDS011;6408;59.388;17.798;2022-11-24T03:31:20;5.23;;;3.60;;
12687;SDS011;6408;59.388;17.798;2022-11-24T03:33:48;5.37;;;3.40;;
12687;SDS011;6408;59.388;17.798;2022-11-24T03:36:16;7.10;;;3.60;;
12687;SDS011;6408;59.388;17.798;2022-11-24T03:38:43;4.47;;;3.60;;
12687;SDS011;6408;59.388;17.798;2022-11-24T03:41:11;4.40;;;3.80;;
12687;SDS011;6408;59.388;17.798;2022-11-24T03:43:38;4.73;;;3.77;;
12687;SDS011;6408;59.388;17.798;2022-11-24T03:46:05;4.80;;;3.50;;
12687;SDS011;6408;59.388;17.798;2022-11-24T03:48:32;5.23;;;3.67;;
12687;SDS011;6408;59.388;17.798;2022-11-24T03:51:00;5.87;;;4.17;;
12687;SDS011;6408;59.388;17.798;2022-11-24T03:53:30;5.37;;;3.77;;
12687;SDS011;6408;59.388;17.798;2022-11-24T03:55:59;5.00;;;3.60;;
12687;SDS011;6408;59.388;17.798;2022-11-24T03:58:27;6.20;;;4.17;;
12687;SDS011;6408;59.388;17.798;2022-11-24T04:00:55;5.30;;;3.70;;
12687;SDS011;6408;59.388;17.798;2022-11-24T04:03:23;6.03;;;3.70;;
12687;SDS011;6408;59.388;17.798;2022-11-24T04:05:50;5.03;;;3.70;;
12687;SDS011;6408;59.388;17.798;2022-11-24T04:08:17;5.83;;;4.07;;
12687;SDS011;6408;59.388;17.798;2022-11-24T04:10:49;6.87;;;3.87;;
12687;SDS011;6408;59.388;17.798;2022-11-24T04:13:19;6.23;;;3.80;;
12687;SDS011;6408;59.388;17.798;2022-11-24T04:15:47;5.53;;;3.70;;
12687;SDS011;6408;59.388;17.798;2022-11-24T04:18:15;5.20;;;3.70;;
12687;SDS011;6408;59.388;17.798;2022-11-24T04:20:42;5.40;;;4.20;;
12687;SDS011;6408;59.388;17.798;2022-11-24T04:23:09;10.33;;;6.23;;
12687;SDS011;6408;59.388;17.798;2022-11-24T04:25:36;7.60;;;4.83;;
12687;SDS011;6408;59.388;17.798;2022-11-24T04:28:07;5.60;;;4.43;;
12687;SDS011;6408;59.388;17.798;2022-11-24T04:30:34;10.00;;;4.83;;
12687;SDS011;6408;59.388;17.798;2022-11-24T04:33:04;4.80;;;3.70;;
12687;SDS011;6408;59.388;17.798;2022-11-24T04:35:31;5.30;;;4.03;;
12687;SDS011;6408;59.388;17.798;2022-11-24T04:38:00;5.67;;;3.73;;
12687;SDS011;6408;59.388;17.798;2022-11-24T04:40:28;4.13;;;3.30;;
12687;SDS011;6408;59.388;17.798;2022-11-24T04:42:55;5.13;;;3.63;;
12687;SDS011;6408;59.388;17.798;2022-11-24T04:45:24;4.77;;;3.70;;
12687;SDS011;6408;59.388;17.798;2022-11-24T04:47:52;5.13;;;3.87;;
12687;SDS011;6408;59.388;17.798;2022-11-24T04:50:19;5.87;;;3.83;;
12687;SDS011;6408;59.388;17.798;2022-11-24T04:52:46;5.80;;;3.90;;
12687;SDS011;6408;59.388;17.798;2022-11-24T04:55:13;5.20;;;3.93;;
12687;SDS011;6408;59.388;17.798;2022-11-24T04:57:41;6.00;;;3.90;;
12687;SDS011;6408;59.388;17.798;2022-11-24T05:00:08;5.37;;;3.73;;
12687;SDS011;6408;59.388;17.798;2022-11-24T05:02:38;5.13;;;3.63;;
12687;SDS011;6408;59.388;17.798;2022-11-24T05:05:05;6.10;;;3.67;;
12687;SDS011;6408;59.388;17.798;2022-11-24T05:07:33;5.43;;;3.83;;
12687;SDS011;6408;59.388;17.798;2022-11-24T05:10:00;6.33;;;3.40;;
12687;SDS011;6408;59.388;17.798;2022-11-24T05:12:52;5.60;;;3.63;;
12687;SDS011;6408;59.388;17.798;2022-11-24T05:15:19;5.87;;;4.00;;
12687;SDS011;6408;59.388;17.798;2022-11-24T05:17:48;5.53;;;3.47;;
12687;SDS011;6408;59.388;17.798;2022-11-24T05:20:15;5.80;;;3.73;;
12687;SDS011;6408;59.388;17.798;2022-11-24T05:22:43;5.67;;;3.93;;
12687;SDS011;6408;59.388;17.798;2022-11-24T05:25:10;5.47;;;3.80;;
12687;SDS011;6408;59.388;17.798;2022-11-24T05:27:38;6.37;;;3.60;;
12687;SDS011;6408;59.388;17.798;2022-11-24T05:30:05;5.87;;;4.00;;
12687;SDS011;6408;59.388;17.798;2022-11-24T05:32:33;5.73;;;3.80;;
12687;SDS011;6408;59.388;17.798;2022-11-24T05:35:02;6.07;;;3.77;;
12687;SDS011;6408;59.388;17.798;2022-11-24T05:37:30;4.57;;;3.70;;
12687;SDS011;6408;59.388;17.798;2022-11-24T05:39:57;5.33;;;3.30;;
12687;SDS011;6408;59.388;17.798;2022-11-24T05:42:24;5.90;;;4.17;;
12687;SDS011;6408;59.388;17.798;2022-11-24T05:45:08;6.20;;;4.37;;
12687;SDS011;6408;59.388;17.798;2022-11-24T05:47:36;5.20;;;3.77;;
12687;SDS011;6408;59.388;17.798;2022-11-24T05:50:07;6.27;;;3.50;;
12687;SDS011;6408;59.388;17.798;2022-11-24T05:52:35;6.20;;;3.50;;
12687;SDS011;6408;59.388;17.798;2022-11-24T05:55:03;4.10;;;3.27;;
12687;SDS011;6408;59.388;17.798;2022-11-24T05:57:32;5.53;;;3.37;;
12687;SDS011;6408;59.388;17.798;2022-11-24T05:59:59;5.63;;;3.73;;
12687;SDS011;6408;59.388;17.798;2022-11-24T06:02:28;5.83;;;3.50;;
12687;SDS011;6408;59.388;17.798;2022-11-24T06:04:55;4.23;;;2.97;;
12687;SDS011;6408;59.388;17.798;2022-11-24T06:07:23;4.63;;;3.30;;
12687;SDS011;6408;59.388;17.798;2022-11-24T06:09:50;5.47;;;3.47;;
12687;SDS011;6408;59.388;17.798;2022-11-24T06:12:18;3.67;;;2.90;;
12687;SDS011;6408;59.388;17.798;2022-11-24T06:14:45;4.37;;;3.30;;
12687;SDS011;6408;59.388;17.798;2022-11-24T06:17:12;4.33;;;3.23;;
12687;SDS011;6408;59.388;17.798;2022-11-24T06:19:39;4.63;;;3.80;;
12687;SDS011;6408;59.388;17.798;2022-11-24T06:22:09;5.50;;;3.47;;
12687;SDS011;6408;59.388;17.798;2022-11-24T06:24:38;4.37;;;3.50;;
12687;SDS011;6408;59.388;17.798;2022-11-24T06:27:05;5.33;;;3.60;;
12687;SDS011;6408;59.388;17.798;2022-11-24T06:29:32;7.43;;;3.97;;
12687;SDS011;6408;59.388;17.798;2022-11-24T06:31:59;6.13;;;4.10;;
12687;SDS011;6408;59.388;17.798;2022-11-24T06:34:26;8.20;;;4.03;;
12687;SDS011;6408;59.388;17.798;2022-11-24T06:36:53;5.63;;;4.40;;
12687;SDS011;6408;59.388;17.798;2022-11-24T06:39:20;6.50;;;4.10;;
12687;SDS011;6408;59.388;17.798;2022-11-24T06:41:49;4.37;;;3.53;;
12687;SDS011;6408;59.388;17.798;2022-11-24T06:44:17;4.80;;;3.77;;
12687;SDS011;6408;59.388;17.798;2022-11-24T06:46:44;3.80;;;3.23;;
12687;SDS011;6408;59.388;17.798;2022-11-24T06:49:11;7.17;;;3.47;;
12687;SDS011;6408;59.388;17.798;2022-11-24T06:51:38;4.60;;;3.50;;
12687;SDS011;6408;59.388;17.798;2022-11-24T06:54:06;6.20;;;3.50;;
12687;SDS011;6408;59.388;17.798;2022-11-24T06:56:34;5.73;;;3.90;;
12687;SDS011;6408;59.388;17.798;2022-11-24T06:59:03;6.63;;;3.77;;
12687;SDS011;6408;59.388;17.798;2022-11-24T07:01:30;6.17;;;3.70;;
12687;SDS011;6408;59.388;17.798;2022-11-24T07:03:57;5.77;;;4.20;;
12687;SDS011;6408;59.388;17.798;2022-11-24T07:06:25;6.03;;;4.27;;
12687;SDS011;6408;59.388;17.798;2022-11-24T07:08:52;5.83;;;3.80;;
12687;SDS011;6408;59.388;17.798;2022-11-24T07:11:20;4.23;;;3.33;;
12687;SDS011;6408;59.388;17.798;2022-11-24T07:13:48;4.57;;;3.17;;
12687;SDS011;6408;59.388;17.798;2022-11-24T07:16:18;4.50;;;3.27;;
12687;SDS011;6408;59.388;17.798;2022-11-24T07:18:47;4.40;;;3.53;;
12687;SDS011;6408;59.388;17.798;2022-11-24T07:21:16;4.03;;;3.43;;
12687;SDS011;6408;59.388;17.798;2022-11-24T07:23:46;5.53;;;3.50;;
12687;SDS011;6408;59.388;17.798;2022-11-24T07:26:13;6.27;;;3.77;;
12687;SDS011;6408;59.388;17.798;2022-11-24T07:28:41;6.70;;;3.77;;
12687;SDS011;6408;59.388;17.798;2022-11-24T07:31:09;4.63;;;3.70;;
12687;SDS011;6408;59.388;17.798;2022-11-24T07:33:39;6.70;;;4.60;;
12687;SDS011;6408;59.388;17.798;2022-11-24T07:36:07;6.60;;;4.10;;
12687;SDS011;6408;59.388;17.798;2022-11-24T07:38:35;5.67;;;3.73;;
12687;SDS011;6408;59.388;17.798;2022-11-24T07:41:02;5.00;;;3.63;;
12687;SDS011;6408;59.388;17.798;2022-11-24T07:43:31;6.97;;;4.23;;
12687;SDS011;6408;59.388;17.798;2022-11-24T07:45:59;4.93;;;4.13;;
12687;SDS011;6408;59.388;17.798;2022-11-24T07:48:26;5.67;;;4.27;;
12687;SDS011;6408;59.388;17.798;2022-11-24T07:50:57;5.07;;;4.23;;
12687;SDS011;6408;59.388;17.798;2022-11-24T07:53:25;5.90;;;4.50;;
12687;SDS011;6408;59.388;17.798;2022-11-24T07:55:52;6.33;;;4.10;;
12687;SDS011;6408;59.388;17.798;2022-11-24T07:58:20;5.87;;;4.03;;
12687;SDS011;6408;59.388;17.798;2022-11-24T08:00:47;7.47;;;4.37;;
12687;SDS011;6408;59.388;17.798;2022-11-24T08:03:14;6.83;;;3.93;;
12687;SDS011;6408;59.388;17.798;2022-11-24T08:05:43;5.33;;;4.23;;
12687;SDS011;6408;59.388;17.798;2022-11-24T08:08:19;5.23;;;3.80;;
12687;SDS011;6408;59.388;17.798;2022-11-24T08:10:46;6.60;;;4.30;;
12687;SDS011;6408;59.388;17.798;2022-11-24T08:13:13;7.27;;;4.53;;
12687;SDS011;6408;59.388;17.798;2022-11-24T08:15:41;5.70;;;4.30;;
12687;SDS011;6408;59.388;17.798;2022-11-24T08:18:08;6.07;;;4.40;;
12687;SDS011;6408;59.388;17.798;2022-11-24T08:20:35;5.37;;;3.80;;
12687;SDS011;6408;59.388;17.798;2022-11-24T08:23:03;6.27;;;4.50;;
12687;SDS011;6408;59.388;17.798;2022-11-24T08:25:32;9.63;;;4.57;;
12687;SDS011;6408;59.388;17.798;2022-11-24T08:27:59;6.23;;;4.40;;
12687;SDS011;6408;59.388;17.798;2022-11-24T08:30:27;5.30;;;4.00;;
12687;SDS011;6408;59.388;17.798;2022-11-24T08:32:57;8.57;;;4.20;;
12687;SDS011;6408;59.388;17.798;2022-11-24T08:35:25;5.80;;;3.90;;
12687;SDS011;6408;59.388;17.798;2022-11-24T08:37:52;7.60;;;4.10;;
12687;SDS011;6408;59.388;17.798;2022-11-24T08:40:19;6.97;;;4.67;;
12687;SDS011;6408;59.388;17.798;2022-11-24T08:42:48;5.10;;;4.00;;
12687;SDS011;6408;59.388;17.798;2022-11-24T08:45:15;7.30;;;4.43;;
12687;SDS011;6408;59.388;17.798;2022-11-24T08:47:42;5.93;;;4.37;;
12687;SDS011;6408;59.388;17.798;2022-11-24T08:50:09;6.90;;;4.07;;
12687;SDS011;6408;59.388;17.798;2022-11-24T08:52:36;4.97;;;3.63;;
12687;SDS011;6408;59.388;17.798;2022-11-24T08:55:03;4.77;;;3.50;;
12687;SDS011;6408;59.388;17.798;2022-11-24T08:57:31;4.53;;;3.77;;
12687;SDS011;6408;59.388;17.798;2022-11-24T09:00:00;4.50;;;3.77;;
12687;SDS011;6408;59.388;17.798;2022-11-24T09:02:27;5.47;;;3.67;;
12687;SDS011;6408;59.388;17.798;2022-11-24T09:04:54;4.63;;;3.60;;
12687;SDS011;6408;59.388;17.798;2022-11-24T09:07:21;3.67;;;3.17;;
12687;SDS011;6408;59.388;17.798;2022-11-24T09:09:49;4.83;;;4.17;;
12687;SDS011;6408;59.388;17.798;2022-11-24T09:12:16;5.17;;;3.57;;
12687;SDS011;6408;59.388;17.798;2022-11-24T09:14:43;4.30;;;3.33;;
12687;SDS011;6408;59.388;17.798;2022-11-24T09:17:12;5.40;;;3.93;;
12687;SDS011;6408;59.388;17.798;2022-11-24T09:19:39;5.20;;;3.73;;
12687;SDS011;6408;59.388;17.798;2022-11-24T09:22:06;5.97;;;3.87;;
12687;SDS011;6408;59.388;17.798;2022-11-24T09:24:33;6.30;;;3.60;;
12687;SDS011;6408;59.388;17.798;2022-11-24T09:27:00;5.73;;;3.73;;
12687;SDS011;6408;59.388;17.798;2022-11-24T09:29:27;5.83;;;3.70;;
12687;SDS011;6408;59.388;17.798;2022-11-24T09:31:54;4.93;;;3.90;;
12687;SDS011;6408;59.388;17.798;2022-11-24T09:34:23;4.40;;;3.50;;
12687;SDS011;6408;59.388;17.798;2022-11-24T09:36:50;5.33;;;3.77;;
12687;SDS011;6408;59.388;17.798;2022-11-24T09:39:17;6.50;;;3.70;;
12687;SDS011;6408;59.388;17.798;2022-11-24T09:41:48;5.57;;;3.90;;
12687;SDS011;6408;59.388;17.798;2022-11-24T09:44:30;6.43;;;4.40;;
12687;SDS011;6408;59.388;17.798;2022-11-24T09:47:33;6.50;;;4.60;;
12687;SDS011;6408;59.388;17.798;2022-11-24T09:50:14;6.40;;;4.43;;
12687;SDS011;6408;59.388;17.798;2022-11-24T09:52:47;5.17;;;4.03;;
12687;SDS011;6408;59.388;17.798;2022-11-24T09:55:24;4.80;;;3.73;;
12687;SDS011;6408;59.388;17.798;2022-11-24T09:58:00;5.10;;;3.57;;
12687;SDS011;6408;59.388;17.798;2022-11-24T10:00:35;4.20;;;3.70;;
12687;SDS011;6408;59.388;17.798;2022-11-24T10:03:03;8.67;;;3.43;;
12687;SDS011;6408;59.388;17.798;2022-11-24T10:05:33;4.47;;;3.23;;
12687;SDS011;6408;59.388;17.798;2022-11-24T10:08:05;7.23;;;3.50;;
12687;SDS011;6408;59.388;17.798;2022-11-24T10:10:47;4.23;;;3.30;;
12687;SDS011;6408;59.388;17.798;2022-11-24T10:13:24;6.57;;;3.30;;
12687;SDS011;6408;59.388;17.798;2022-11-24T10:16:03;4.53;;;3.20;;
12687;SDS011;6408;59.388;17.798;2022-11-24T10:18:44;4.67;;;3.10;;
12687;SDS011;6408;59.388;17.798;2022-11-24T10:24:18;4.43;;;2.93;;
12687;SDS011;6408;59.388;17.798;2022-11-24T10:27:12;4.77;;;3.17;;
12687;SDS011;6408;59.388;17.798;2022-11-24T10:29:43;5.33;;;3.27;;
12687;SDS011;6408;59.388;17.798;2022-11-24T10:32:13;5.33;;;3.27;;
12687;SDS011;6408;59.388;17.798;2022-11-24T10:34:43;6.03;;;3.00;;
12687;SDS011;6408;59.388;17.798;2022-11-24T10:37:15;4.30;;;3.07;;
12687;SDS011;6408;59.388;17.798;2022-11-24T10:39:49;3.33;;;2.63;;
12687;SDS011;6408;59.388;17.798;2022-11-24T10:42:22;3.43;;;2.70;;
12687;SDS011;6408;59.388;17.798;2022-11-24T10:44:59;4.07;;;2.80;;
12687;SDS011;6408;59.388;17.798;2022-11-24T10:47:29;5.20;;;3.17;;
12687;SDS011;6408;59.388;17.798;2022-11-24T10:50:09;4.90;;;2.47;;
12687;SDS011;6408;59.388;17.798;2022-11-24T10:52:46;3.17;;;2.27;;
12687;SDS011;6408;59.388;17.798;2022-11-24T10:55:19;3.27;;;2.50;;
12687;SDS011;6408;59.388;17.798;2022-11-24T10:57:46;3.10;;;2.60;;
12687;SDS011;6408;59.388;17.798;2022-11-24T11:00:29;3.57;;;2.70;;
12687;SDS011;6408;59.388;17.798;2022-11-24T11:03:13;3.03;;;2.30;;
12687;SDS011;6408;59.388;17.798;2022-11-24T11:05:43;3.57;;;2.37;;
12687;SDS011;6408;59.388;17.798;2022-11-24T11:08:17;3.83;;;2.20;;
12687;SDS011;6408;59.388;17.798;2022-11-24T11:10:47;3.60;;;2.10;;
12687;SDS011;6408;59.388;17.798;2022-11-24T11:13:19;2.87;;;2.27;;
12687;SDS011;6408;59.388;17.798;2022-11-24T11:15:51;2.80;;;2.30;;
12687;SDS011;6408;59.388;17.798;2022-11-24T11:18:18;2.67;;;2.40;;
12687;SDS011;6408;59.388;17.798;2022-11-24T11:20:50;2.63;;;2.00;;
12687;SDS011;6408;59.388;17.798;2022-11-24T11:23:25;2.10;;;1.90;;
12687;SDS011;6408;59.388;17.798;2022-11-24T11:28:58;2.83;;;2.10;;
12687;SDS011;6408;59.388;17.798;2022-11-24T11:31:27;3.40;;;2.30;;
12687;SDS011;6408;59.388;17.798;2022-11-24T11:33:58;3.13;;;2.13;;
12687;SDS011;6408;59.388;17.798;2022-11-24T11:36:28;3.67;;;2.30;;
12687;SDS011;6408;59.388;17.798;2022-11-24T11:38:59;2.57;;;1.87;;
12687;SDS011;6408;59.388;17.798;2022-11-24T11:41:29;2.43;;;2.13;;
12687;SDS011;6408;59.388;17.798;2022-11-24T11:44:05;2.97;;;2.00;;
12687;SDS011;6408;59.388;17.798;2022-11-24T11:46:40;2.60;;;2.20;;
12687;SDS011;6408;59.388;17.798;2022-11-24T11:49:09;3.20;;;2.30;;
12687;SDS011;6408;59.388;17.798;2022-11-24T11:51:43;2.67;;;1.80;;
12687;SDS011;6408;59.388;17.798;2022-11-24T11:54:22;1.70;;;1.60;;
12687;SDS011;6408;59.388;17.798;2022-11-24T11:57:01;2.47;;;1.90;;
12687;SDS011;6408;59.388;17.798;2022-11-24T11:59:45;2.53;;;1.70;;
12687;SDS011;6408;59.388;17.798;2022-11-24T12:05:25;3.00;;;1.40;;
12687;SDS011;6408;59.388;17.798;2022-11-24T12:08:00;1.60;;;1.50;;
12687;SDS011;6408;59.388;17.798;2022-11-24T12:10:43;1.80;;;1.50;;
12687;SDS011;6408;59.388;17.798;2022-11-24T12:13:28;1.80;;;1.53;;
12687;SDS011;6408;59.388;17.798;2022-11-24T12:16:21;2.90;;;1.40;;
12687;SDS011;6408;59.388;17.798;2022-11-24T12:18:58;1.60;;;1.27;;
12687;SDS011;6408;59.388;17.798;2022-11-24T12:21:42;2.90;;;1.70;;
12687;SDS011;6408;59.388;17.798;2022-11-24T12:24:16;2.60;;;1.60;;
12687;SDS011;6408;59.388;17.798;2022-11-24T12:26:49;2.10;;;1.50;;
12687;SDS011;6408;59.388;17.798;2022-11-24T12:29:34;1.73;;;1.53;;
12687;SDS011;6408;59.388;17.798;2022-11-24T12:32:20;2.57;;;1.80;;
12687;SDS011;6408;59.388;17.798;2022-11-24T12:35:05;2.33;;;1.87;;
12687;SDS011;6408;59.388;17.798;2022-11-24T12:37:47;3.37;;;2.00;;
12687;SDS011;6408;59.388;17.798;2022-11-24T12:40:22;6.23;;;2.27;;
12687;SDS011;6408;59.388;17.798;2022-11-24T12:43:02;3.83;;;2.00;;
12687;SDS011;6408;59.388;17.798;2022-11-24T12:45:38;3.07;;;2.20;;
12687;SDS011;6408;59.388;17.798;2022-11-24T12:48:21;3.80;;;2.30;;
12687;SDS011;6408;59.388;17.798;2022-11-24T12:50:58;2.33;;;1.70;;
12687;SDS011;6408;59.388;17.798;2022-11-24T12:53:26;2.07;;;1.37;;
12687;SDS011;6408;59.388;17.798;2022-11-24T12:55:56;2.37;;;1.40;;
12687;SDS011;6408;59.388;17.798;2022-11-24T12:58:34;1.53;;;1.43;;
12687;SDS011;6408;59.388;17.798;2022-11-24T13:01:09;1.53;;;1.20;;
12687;SDS011;6408;59.388;17.798;2022-11-24T13:03:48;1.80;;;1.50;;
12687;SDS011;6408;59.388;17.798;2022-11-24T13:06:26;2.53;;;1.27;;
12687;SDS011;6408;59.388;17.798;2022-11-24T13:09:05;2.50;;;1.40;;
12687;SDS011;6408;59.388;17.798;2022-11-24T13:11:38;3.63;;;1.70;;
12687;SDS011;6408;59.388;17.798;2022-11-24T13:14:13;3.07;;;1.40;;
12687;SDS011;6408;59.388;17.798;2022-11-24T13:16:53;2.20;;;1.40;;
12687;SDS011;6408;59.388;17.798;2022-11-24T13:19:23;1.63;;;1.40;;
12687;SDS011;6408;59.388;17.798;2022-11-24T13:22:09;1.20;;;1.10;;
12687;SDS011;6408;59.388;17.798;2022-11-24T13:24:40;3.93;;;1.53;;
12687;SDS011;6408;59.388;17.798;2022-11-24T13:33:33;2.90;;;1.50;;
12687;SDS011;6408;59.388;17.798;2022-11-24T13:39:06;2.00;;;1.43;;
12687;SDS011;6408;59.388;17.798;2022-11-24T13:44:52;2.53;;;1.50;;
12687;SDS011;6408;59.388;17.798;2022-11-24T13:50:22;2.03;;;1.57;;
12687;SDS011;6408;59.388;17.798;2022-11-24T13:53:19;1.97;;;1.60;;
12687;SDS011;6408;59.388;17.798;2022-11-24T13:55:53;2.07;;;1.50;;
12687;SDS011;6408;59.388;17.798;2022-11-24T13:58:28;3.00;;;1.60;;
12687;SDS011;6408;59.388;17.798;2022-11-24T14:04:03;2.50;;;1.80;;
12687;SDS011;6408;59.388;17.798;2022-11-24T14:06:45;1.90;;;1.63;;
12687;SDS011;6408;59.388;17.798;2022-11-24T14:09:26;2.00;;;1.80;;
12687;SDS011;6408;59.388;17.798;2022-11-24T14:12:04;2.33;;;1.53;;
12687;SDS011;6408;59.388;17.798;2022-11-24T14:14:38;2.13;;;1.40;;
12687;SDS011;6408;59.388;17.798;2022-11-24T14:17:06;3.70;;;2.27;;
12687;SDS011;6408;59.388;17.798;2022-11-24T14:19:38;1.80;;;1.60;;
12687;SDS011;6408;59.388;17.798;2022-11-24T14:22:12;2.83;;;1.80;;
12687;SDS011;6408;59.388;17.798;2022-11-24T14:24:43;2.77;;;2.10;;
12687;SDS011;6408;59.388;17.798;2022-11-24T14:27:12;4.07;;;1.90;;
12687;SDS011;6408;59.388;17.798;2022-11-24T14:29:52;5.33;;;1.83;;
12687;SDS011;6408;59.388;17.798;2022-11-24T14:32:21;2.10;;;1.67;;
12687;SDS011;6408;59.388;17.798;2022-11-24T14:34:49;1.77;;;1.50;;
12687;SDS011;6408;59.388;17.798;2022-11-24T14:37:19;2.17;;;1.73;;
12687;SDS011;6408;59.388;17.798;2022-11-24T14:39:46;2.20;;;1.63;;
12687;SDS011;6408;59.388;17.798;2022-11-24T14:42:15;1.60;;;1.50;;
12687;SDS011;6408;59.388;17.798;2022-11-24T14:44:45;2.50;;;1.60;;
12687;SDS011;6408;59.388;17.798;2022-11-24T14:47:17;2.13;;;1.73;;
12687;SDS011;6408;59.388;17.798;2022-11-24T14:49:47;1.70;;;1.60;;
12687;SDS011;6408;59.388;17.798;2022-11-24T14:52:16;2.40;;;1.73;;
12687;SDS011;6408;59.388;17.798;2022-11-24T14:54:48;2.40;;;1.80;;
12687;SDS011;6408;59.388;17.798;2022-11-24T14:57:23;2.43;;;1.70;;
12687;SDS011;6408;59.388;17.798;2022-11-24T15:00:03;4.60;;;1.73;;
12687;SDS011;6408;59.388;17.798;2022-11-24T15:02:50;2.43;;;1.50;;
12687;SDS011;6408;59.388;17.798;2022-11-24T15:05:19;1.93;;;1.60;;
12687;SDS011;6408;59.388;17.798;2022-11-24T15:07:50;2.30;;;1.70;;
12687;SDS011;6408;59.388;17.798;2022-11-24T15:10:27;2.10;;;1.60;;
12687;SDS011;6408;59.388;17.798;2022-11-24T15:12:59;1.90;;;1.70;;
12687;SDS011;6408;59.388;17.798;2022-11-24T15:15:29;2.50;;;1.90;;
12687;SDS011;6408;59.388;17.798;2022-11-24T15:17:58;2.23;;;1.50;;
12687;SDS011;6408;59.388;17.798;2022-11-24T15:20:27;3.20;;;1.67;;
12687;SDS011;6408;59.388;17.798;2022-11-24T15:25:50;2.47;;;1.70;;
12687;SDS011;6408;59.388;17.798;2022-11-24T15:28:18;3.37;;;1.50;;
12687;SDS011;6408;59.388;17.798;2022-11-24T15:30:49;2.17;;;1.60;;
12687;SDS011;6408;59.388;17.798;2022-11-24T15:33:18;2.00;;;1.80;;
12687;SDS011;6408;59.388;17.798;2022-11-24T15:35:46;3.30;;;1.80;;
12687;SDS011;6408;59.388;17.798;2022-11-24T15:38:14;2.17;;;1.90;;